createdAt,value
2022-08-26T00:01:04.466Z,99605.88
2022-08-26T00:03:36.276Z,99613.47
2022-08-26T00:06:05.589Z,99605.63
2022-08-26T00:08:34.122Z,99607.66
2022-08-26T00:11:03.035Z,99608.81
2022-08-26T00:13:31.257Z,99603.75
2022-08-26T00:15:59.934Z,99597.37
2022-08-26T00:18:28.208Z,99604.06
2022-08-26T00:20:59.755Z,99596.31
2022-08-26T00:23:34.990Z,99597.53
2022-08-26T00:26:05.547Z,99601.34
2022-08-26T00:28:36.651Z,99606.09
2022-08-26T00:31:05.345Z,99594.22
2022-08-26T00:33:35.009Z,99599.06
2022-08-26T00:36:03.880Z,99594.22
2022-08-26T00:38:33.343Z,99591.22
2022-08-26T00:41:02.118Z,99589.81
2022-08-26T00:43:46.066Z,99598.22
2022-08-26T00:46:46.812Z,99598.00
2022-08-26T00:49:26.000Z,99594.75
2022-08-26T00:51:57.008Z,99593.22
2022-08-26T00:54:30.672Z,99593.00
2022-08-26T00:57:02.521Z,99603.59
2022-08-26T00:59:33.270Z,99596.09
2022-08-26T01:02:02.871Z,99595.28
2022-08-26T01:04:35.034Z,99589.41
2022-08-26T01:07:07.111Z,99593.88
2022-08-26T01:09:36.388Z,99594.63
2022-08-26T01:12:06.336Z,99585.59
2022-08-26T01:14:36.863Z,99588.31
2022-08-26T01:17:07.756Z,99589.63
2022-08-26T01:19:45.935Z,99587.50
2022-08-26T01:22:17.892Z,99589.56
2022-08-26T01:24:47.333Z,99584.56
2022-08-26T01:27:19.805Z,99571.16
2022-08-26T01:29:50.393Z,99580.50
2022-08-26T01:32:23.298Z,99581.03
2022-08-26T01:34:52.811Z,99584.13
2022-08-26T01:37:26.209Z,99580.69
2022-08-26T01:39:56.630Z,99578.47
2022-08-26T01:42:27.550Z,99581.53
2022-08-26T01:45:09.123Z,99579.78
2022-08-26T01:47:39.248Z,99581.97
2022-08-26T01:50:12.606Z,99578.06
2022-08-26T01:52:49.948Z,99576.22
2022-08-26T01:55:33.137Z,99580.63
2022-08-26T01:58:08.534Z,99581.81
2022-08-26T02:00:38.334Z,99578.75
2022-08-26T02:03:17.362Z,99572.63
2022-08-26T02:05:51.439Z,99577.91
2022-08-26T02:08:25.774Z,99581.81
2022-08-26T02:10:55.376Z,99581.87
2022-08-26T02:13:29.162Z,99579.91
2022-08-26T02:16:00.581Z,99583.13
2022-08-26T02:18:30.738Z,99580.41
2022-08-26T02:21:00.415Z,99576.59
2022-08-26T02:23:28.571Z,99573.50
2022-08-26T02:26:04.376Z,99574.63
2022-08-26T02:28:39.239Z,99583.34
2022-08-26T02:31:08.566Z,99573.50
2022-08-26T02:33:38.578Z,99579.69
2022-08-26T02:36:12.131Z,99577.84
2022-08-26T02:38:43.036Z,99586.22
2022-08-26T02:41:11.363Z,99581.37
2022-08-26T02:43:39.765Z,99586.50
2022-08-26T02:46:08.161Z,99574.69
2022-08-26T02:48:36.941Z,99586.88
2022-08-26T02:51:05.680Z,99577.16
2022-08-26T02:53:35.521Z,99574.69
2022-08-26T02:56:07.800Z,99575.97
2022-08-26T02:58:37.473Z,99571.88
2022-08-26T03:01:06.194Z,99570.47
2022-08-26T03:03:34.814Z,99560.19
2022-08-26T03:06:03.416Z,99561.13
2022-08-26T03:08:31.518Z,99561.41
2022-08-26T03:11:01.673Z,99569.69
2022-08-26T03:13:30.523Z,99566.72
2022-08-26T03:16:01.978Z,99565.25
2022-08-26T03:18:30.736Z,99564.84
2022-08-26T03:21:04.473Z,99566.22
2022-08-26T03:23:34.200Z,99561.97
2022-08-26T03:26:03.024Z,99566.81
2022-08-26T03:28:31.836Z,99564.66
2022-08-26T03:31:00.410Z,99564.84
2022-08-26T03:33:28.992Z,99561.59
2022-08-26T03:35:57.679Z,99560.78
2022-08-26T03:38:26.168Z,99559.97
2022-08-26T03:40:55.574Z,99559.97
2022-08-26T03:43:26.861Z,99549.44
2022-08-26T03:45:55.511Z,99560.09
2022-08-26T03:48:23.671Z,99553.75
2022-08-26T03:50:52.008Z,99563.97
2022-08-26T03:53:20.685Z,99561.91
2022-08-26T03:55:48.881Z,99562.62
2022-08-26T03:58:21.919Z,99563.16
2022-08-26T04:00:55.759Z,99554.88
2022-08-26T04:03:44.668Z,99560.56
2022-08-26T04:06:13.127Z,99561.41
2022-08-26T04:08:42.177Z,99555.09
2022-08-26T04:11:20.059Z,99556.84
2022-08-26T04:13:49.065Z,99560.53
2022-08-26T04:16:20.486Z,99561.19
2022-08-26T04:18:49.616Z,99558.34
2022-08-26T04:21:17.838Z,99558.78
2022-08-26T04:23:48.474Z,99563.22
2022-08-26T04:26:19.455Z,99555.56
2022-08-26T04:28:49.226Z,99560.81
2022-08-26T04:31:19.449Z,99562.25
2022-08-26T04:33:50.049Z,99559.97
2022-08-26T04:36:20.159Z,99556.63
2022-08-26T04:38:50.772Z,99562.22
2022-08-26T04:41:20.672Z,99568.31
2022-08-26T04:43:48.982Z,99560.28
2022-08-26T04:46:22.791Z,99554.72
2022-08-26T04:48:53.761Z,99562.66
2022-08-26T04:51:28.071Z,99551.16
2022-08-26T04:53:58.377Z,99557.19
2022-08-26T04:56:28.637Z,99562.53
2022-08-26T04:58:57.341Z,99560.63
2022-08-26T05:01:25.503Z,99561.91
2022-08-26T05:03:54.980Z,99558.78
2022-08-26T05:06:23.695Z,99556.69
2022-08-26T05:08:52.774Z,99558.00
2022-08-26T05:11:22.054Z,99558.37
2022-08-26T05:13:50.624Z,99559.94
2022-08-26T05:16:19.532Z,99565.28
2022-08-26T05:18:48.578Z,99554.25
2022-08-26T05:21:20.037Z,99563.09
2022-08-26T05:23:51.445Z,99561.53
2022-08-26T05:26:23.086Z,99563.06
2022-08-26T05:28:54.865Z,99560.00
2022-08-26T05:31:27.421Z,99564.78
2022-08-26T05:33:57.635Z,99564.84
2022-08-26T05:36:28.731Z,99569.25
2022-08-26T05:38:57.832Z,99565.28
2022-08-26T05:41:34.279Z,99568.78
2022-08-26T05:44:10.275Z,99569.47
2022-08-26T05:46:40.180Z,99566.75
2022-08-26T05:49:12.329Z,99565.38
2022-08-26T05:51:45.296Z,99572.19
2022-08-26T05:54:14.678Z,99569.22
2022-08-26T05:56:53.643Z,99572.38
2022-08-26T05:59:24.607Z,99578.72
2022-08-26T06:01:55.266Z,99578.38
2022-08-26T06:04:27.264Z,99574.37
2022-08-26T06:06:56.633Z,99580.94
2022-08-26T06:09:25.461Z,99583.50
2022-08-26T06:11:53.698Z,99573.56
2022-08-26T06:14:23.122Z,99568.22
2022-08-26T06:16:52.209Z,99581.53
2022-08-26T06:19:21.667Z,99575.38
2022-08-26T06:21:54.061Z,99577.69
2022-08-26T06:24:41.823Z,99582.37
2022-08-26T06:27:13.884Z,99584.22
2022-08-26T06:29:43.987Z,99585.91
2022-08-26T06:32:12.631Z,99582.87
2022-08-26T06:34:41.059Z,99583.28
2022-08-26T06:37:10.082Z,99587.91
2022-08-26T06:39:41.135Z,99588.78
2022-08-26T06:42:11.889Z,99588.41
2022-08-26T06:44:43.994Z,99594.66
2022-08-26T06:47:13.462Z,99591.50
2022-08-26T06:49:41.728Z,99597.81
2022-08-26T06:52:10.108Z,99595.16
2022-08-26T06:54:43.243Z,99591.34
2022-08-26T06:57:13.201Z,99589.44
2022-08-26T06:59:42.789Z,99597.25
2022-08-26T07:02:13.489Z,99594.84
2022-08-26T07:04:42.229Z,99597.69
2022-08-26T07:07:15.128Z,99600.78
2022-08-26T07:09:43.426Z,99595.22
2022-08-26T07:12:11.765Z,99591.75
2022-08-26T07:14:39.867Z,99596.78
2022-08-26T07:17:14.009Z,99597.63
2022-08-26T07:19:43.132Z,99593.56
2022-08-26T07:22:11.779Z,99594.50
2022-08-26T07:24:42.481Z,99593.12
2022-08-26T07:27:15.738Z,99591.72
2022-08-26T07:29:45.024Z,99593.03
2022-08-26T07:32:15.897Z,99592.19
2022-08-26T07:34:45.828Z,99597.75
2022-08-26T07:37:14.168Z,99590.94
2022-08-26T07:39:43.310Z,99593.12
2022-08-26T07:42:15.354Z,99591.34
2022-08-26T07:44:44.193Z,99594.94
2022-08-26T07:47:24.706Z,99598.72
2022-08-26T07:49:56.226Z,99588.56
2022-08-26T07:52:27.697Z,99582.34
2022-08-26T07:54:58.565Z,99588.25
2022-08-26T07:57:28.348Z,99588.63
2022-08-26T07:59:56.761Z,99589.37
2022-08-26T08:02:26.249Z,99588.22
2022-08-26T08:04:56.807Z,99586.19
2022-08-26T08:07:25.775Z,99584.81
2022-08-26T08:10:21.150Z,99593.81
2022-08-26T08:12:50.101Z,99590.69
2022-08-26T08:15:25.070Z,99588.50
2022-08-26T08:17:55.599Z,99584.16
2022-08-26T08:20:28.363Z,99587.97
2022-08-26T08:22:57.093Z,99578.25
2022-08-26T08:25:25.800Z,99577.06
2022-08-26T08:27:55.011Z,99577.13
2022-08-26T08:30:25.351Z,99570.69
2022-08-26T08:32:54.094Z,99574.47
2022-08-26T08:35:24.358Z,99572.09
2022-08-26T08:37:57.185Z,99577.97
2022-08-26T08:40:27.709Z,99574.31
2022-08-26T08:42:59.413Z,99575.59
2022-08-26T08:45:37.356Z,99571.53
2022-08-26T08:48:09.119Z,99565.16
2022-08-26T08:50:52.212Z,99560.94
2022-08-26T08:53:43.115Z,99565.28
2022-08-26T08:56:31.055Z,99568.47
2022-08-26T08:59:16.512Z,99563.44
2022-08-26T09:02:13.201Z,99565.72
2022-08-26T09:05:07.177Z,99564.75
2022-08-26T09:07:48.321Z,99563.84
2022-08-26T09:10:22.556Z,99564.16
2022-08-26T09:12:52.357Z,99566.97
2022-08-26T09:15:30.591Z,99562.44
2022-08-26T09:18:11.792Z,99560.34
2022-08-26T09:20:55.496Z,99554.56
2022-08-26T09:23:25.252Z,99548.28
2022-08-26T09:25:59.998Z,99549.00
2022-08-26T09:28:31.119Z,99543.69
2022-08-26T09:31:22.003Z,99539.66
2022-08-26T09:34:04.663Z,99538.59
2022-08-26T09:36:48.590Z,99535.00
2022-08-26T09:39:39.397Z,99532.19
2022-08-26T09:42:22.704Z,99531.06
2022-08-26T09:44:57.818Z,99532.16
2022-08-26T09:47:53.231Z,99536.59
2022-08-26T09:50:34.015Z,99526.44
2022-08-26T09:53:32.313Z,99528.56
2022-08-26T09:56:32.207Z,99532.97
2022-08-26T09:59:02.002Z,99529.94
2022-08-26T10:01:43.689Z,99530.75
2022-08-26T10:04:19.927Z,99525.97
2022-08-26T10:07:05.013Z,99527.56
2022-08-26T10:09:43.384Z,99529.00
2022-08-26T10:12:21.665Z,99530.47
2022-08-26T10:14:56.309Z,99524.88
2022-08-26T10:17:48.565Z,99528.19
2022-08-26T10:20:26.259Z,99526.28
2022-08-26T10:23:00.428Z,99515.66
2022-08-26T10:25:46.730Z,99515.88
2022-08-26T10:28:58.205Z,99514.03
2022-08-26T10:31:40.610Z,99514.19
2022-08-26T10:34:12.562Z,99511.00
2022-08-26T10:37:16.269Z,99508.84
2022-08-26T10:40:07.728Z,99499.88
2022-08-26T10:42:41.819Z,99492.50
2022-08-26T10:45:16.957Z,99496.84
2022-08-26T10:48:03.359Z,99489.38
2022-08-26T10:50:37.297Z,99494.78
2022-08-26T10:53:12.073Z,99485.47
2022-08-26T10:55:53.782Z,99489.78
2022-08-26T10:58:41.034Z,99486.94
2022-08-26T11:01:44.013Z,99485.34
2022-08-26T11:04:23.172Z,99478.69
2022-08-26T11:07:31.806Z,99478.34
2022-08-26T11:10:22.611Z,99472.59
2022-08-26T11:12:59.710Z,99467.37
2022-08-26T11:15:29.438Z,99472.22
2022-08-26T11:18:04.155Z,99467.19
2022-08-26T11:20:41.526Z,99460.59
2022-08-26T11:23:09.882Z,99468.91
2022-08-26T11:25:57.186Z,99469.06
2022-08-26T11:28:52.310Z,99464.59
2022-08-26T11:31:26.989Z,99464.44
2022-08-26T11:34:07.145Z,99453.34
2022-08-26T11:36:42.154Z,99456.25
2022-08-26T11:39:21.401Z,99452.00
2022-08-26T11:41:53.091Z,99444.34
2022-08-26T11:44:26.587Z,99448.69
2022-08-26T11:47:00.782Z,99434.44
2022-08-26T11:49:31.652Z,99440.34
2022-08-26T11:52:08.752Z,99429.87
2022-08-26T11:54:37.152Z,99427.91
2022-08-26T11:57:09.522Z,99431.22
2022-08-26T11:59:42.515Z,99424.75
2022-08-26T12:02:15.424Z,99428.84
2022-08-26T12:04:48.942Z,99420.59
2022-08-26T12:07:23.886Z,99417.19
2022-08-26T12:09:59.177Z,99419.69
2022-08-26T12:12:34.974Z,99419.00
2022-08-26T12:15:06.685Z,99409.03
2022-08-26T12:17:34.939Z,99412.09
2022-08-26T12:20:16.903Z,99407.72
2022-08-26T12:22:48.109Z,99406.28
2022-08-26T12:25:24.330Z,99402.41
2022-08-26T12:27:54.027Z,99405.13
2022-08-26T12:30:24.465Z,99398.34
2022-08-26T12:33:22.482Z,99401.03
2022-08-26T12:35:56.426Z,99395.53
2022-08-26T12:38:27.315Z,99391.47
2022-08-26T12:40:57.027Z,99392.66
2022-08-26T12:43:45.969Z,99396.34
2022-08-26T12:46:24.385Z,99390.38
2022-08-26T12:48:52.694Z,99384.56
2022-08-26T12:51:27.511Z,99377.19
2022-08-26T12:53:56.385Z,99375.91
2022-08-26T12:56:33.972Z,99374.41
2022-08-26T12:59:26.465Z,99364.28
2022-08-26T13:01:55.255Z,99366.34
2022-08-26T13:04:42.144Z,99362.66
2022-08-26T13:07:13.477Z,99364.03
2022-08-26T13:09:41.615Z,99356.25
2022-08-26T13:12:11.696Z,99360.66
2022-08-26T13:14:40.562Z,99353.56
2022-08-26T13:17:09.107Z,99353.75
2022-08-26T13:19:37.581Z,99345.91
2022-08-26T13:22:07.584Z,99349.28
2022-08-26T13:24:41.161Z,99348.78
2022-08-26T13:27:12.228Z,99341.72
2022-08-26T13:29:40.522Z,99341.22
2022-08-26T13:32:09.540Z,99343.53
2022-08-26T13:34:39.357Z,99336.34
2022-08-26T13:37:07.450Z,99332.84
2022-08-26T13:39:35.700Z,99336.72
2022-08-26T13:42:04.397Z,99330.56
2022-08-26T13:44:32.584Z,99327.25
2022-08-26T13:47:00.727Z,99325.56
2022-08-26T13:49:29.335Z,99326.38
2022-08-26T13:51:57.368Z,99322.87
2022-08-26T13:54:25.624Z,99317.78
2022-08-26T13:56:54.233Z,99315.97
2022-08-26T13:59:22.425Z,99321.53
2022-08-26T14:01:50.710Z,99319.59
2022-08-26T14:04:27.044Z,99318.78
2022-08-26T14:06:55.797Z,99317.97
2022-08-26T14:09:24.661Z,99318.53
2022-08-26T14:11:54.599Z,99322.13
2022-08-26T14:14:23.687Z,99319.44
2022-08-26T14:16:59.364Z,99316.13
2022-08-26T14:19:32.127Z,99318.59
2022-08-26T14:22:01.418Z,99317.94
2022-08-26T14:24:29.965Z,99328.41
2022-08-26T14:26:58.697Z,99326.22
2022-08-26T14:29:27.257Z,99328.09
2022-08-26T14:31:57.242Z,99325.53
2022-08-26T14:34:28.789Z,99316.16
2022-08-26T14:36:57.223Z,99325.75
2022-08-26T14:39:25.428Z,99319.16
2022-08-26T14:41:56.707Z,99319.16
2022-08-26T14:44:30.556Z,99319.97
2022-08-26T14:47:01.466Z,99320.97
2022-08-26T14:49:31.404Z,99316.78
2022-08-26T14:51:59.624Z,99318.38
2022-08-26T14:54:29.493Z,99318.72
2022-08-26T14:56:59.185Z,99313.63
2022-08-26T14:59:31.069Z,99309.81
2022-08-26T15:02:00.845Z,99310.47
2022-08-26T15:04:29.443Z,99309.69
2022-08-26T15:06:59.756Z,99309.03
2022-08-26T15:09:29.566Z,99309.03
2022-08-26T15:11:57.989Z,99308.69
2022-08-26T15:14:28.613Z,99300.03
2022-08-26T15:16:59.472Z,99297.91
2022-08-26T15:19:27.971Z,99294.81
2022-08-26T15:21:56.780Z,99295.41
2022-08-26T15:24:26.871Z,99296.19
2022-08-26T15:26:55.320Z,99292.37
2022-08-26T15:29:26.696Z,99294.03
2022-08-26T15:31:57.200Z,99290.16
2022-08-26T15:34:26.644Z,99290.44
2022-08-26T15:36:59.771Z,99292.91
2022-08-26T15:39:27.904Z,99291.59
2022-08-26T15:41:56.343Z,99291.19
2022-08-26T15:44:26.203Z,99297.66
2022-08-26T15:46:58.417Z,99277.03
2022-08-26T15:49:27.732Z,99280.31
2022-08-26T15:51:55.871Z,99286.25
2022-08-26T15:54:24.553Z,99278.31
2022-08-26T15:56:53.806Z,99278.16
2022-08-26T15:59:22.596Z,99270.16
2022-08-26T16:01:52.137Z,99267.47
2022-08-26T16:04:21.128Z,99270.00
2022-08-26T16:06:51.482Z,99266.31
2022-08-26T16:09:24.322Z,99263.69
2022-08-26T16:11:55.075Z,99266.53
2022-08-26T16:14:24.080Z,99267.47
2022-08-26T16:16:53.159Z,99278.19
2022-08-26T16:19:22.094Z,99271.88
2022-08-26T16:21:51.482Z,99272.50
2022-08-26T16:24:28.438Z,99273.09
2022-08-26T16:26:58.502Z,99270.56
2022-08-26T16:29:27.721Z,99277.34
2022-08-26T16:31:56.010Z,99269.94
2022-08-26T16:34:24.283Z,99268.84
2022-08-26T16:36:53.147Z,99269.19
2022-08-26T16:39:21.240Z,99264.44
2022-08-26T16:41:49.382Z,99271.00
2022-08-26T16:44:17.872Z,99269.72
2022-08-26T16:46:49.171Z,99272.72
2022-08-26T16:49:17.870Z,99271.66
2022-08-26T16:51:46.849Z,99270.69
2022-08-26T16:54:15.074Z,99278.78
2022-08-26T16:56:43.668Z,99278.31
2022-08-26T16:59:11.895Z,99271.56
2022-08-26T17:01:40.075Z,99277.28
2022-08-26T17:04:08.673Z,99282.13
2022-08-26T17:06:37.399Z,99283.25
2022-08-26T17:09:06.179Z,99285.41
2022-08-26T17:11:35.354Z,99279.53
2022-08-26T17:14:04.430Z,99272.09
2022-08-26T17:16:32.584Z,99266.78
2022-08-26T17:19:01.507Z,99270.78
2022-08-26T17:21:31.683Z,99275.09
2022-08-26T17:24:00.518Z,99267.66
2022-08-26T17:26:28.910Z,99274.41
2022-08-26T17:28:59.091Z,99271.56
2022-08-26T17:31:27.413Z,99275.03
2022-08-26T17:33:56.042Z,99265.62
2022-08-26T17:36:28.127Z,99272.91
2022-08-26T17:38:58.482Z,99270.00
2022-08-26T17:41:27.442Z,99268.13
2022-08-26T17:43:55.894Z,99267.34
2022-08-26T17:46:24.780Z,99260.09
2022-08-26T17:48:53.033Z,99268.13
2022-08-26T17:51:23.424Z,99268.97
2022-08-26T17:53:52.792Z,99273.75
2022-08-26T17:56:25.617Z,99269.25
2022-08-26T17:58:56.873Z,99270.91
2022-08-26T18:01:27.237Z,99273.91
2022-08-26T18:04:00.280Z,99273.12
2022-08-26T18:06:30.647Z,99277.13
2022-08-26T18:09:00.758Z,99274.72
2022-08-26T18:11:31.411Z,99279.53
2022-08-26T18:14:00.428Z,99275.75
2022-08-26T18:16:31.691Z,99270.91
2022-08-26T18:19:00.998Z,99267.19
2022-08-26T18:21:29.209Z,99273.53
2022-08-26T18:23:57.506Z,99273.81
2022-08-26T18:26:32.380Z,99278.84
2022-08-26T18:29:01.146Z,99274.59
2022-08-26T18:31:31.642Z,99277.78
2022-08-26T18:34:01.719Z,99282.25
2022-08-26T18:36:33.367Z,99279.84
2022-08-26T18:39:04.137Z,99277.75
2022-08-26T18:41:38.732Z,99281.44
2022-08-26T18:44:09.472Z,99288.62
2022-08-26T18:46:40.299Z,99289.34
2022-08-26T18:49:10.031Z,99297.84
2022-08-26T18:51:38.445Z,99299.94
2022-08-26T18:54:07.730Z,99299.84
2022-08-26T18:56:37.664Z,99303.00
2022-08-26T18:59:08.377Z,99303.00
2022-08-26T19:01:40.494Z,99303.47
2022-08-26T19:04:14.096Z,99303.69
2022-08-26T19:06:47.781Z,99303.12
2022-08-26T19:09:18.034Z,99305.94
2022-08-26T19:11:47.041Z,99311.22
2022-08-26T19:14:18.784Z,99314.41
2022-08-26T19:16:49.131Z,99301.34
2022-08-26T19:19:17.295Z,99310.19
2022-08-26T19:21:46.978Z,99311.91
2022-08-26T19:24:17.668Z,99305.78
2022-08-26T19:26:49.233Z,99306.50
2022-08-26T19:29:22.502Z,99313.16
2022-08-26T19:31:50.727Z,99308.03
2022-08-26T19:34:20.769Z,99309.19
2022-08-26T19:36:50.512Z,99312.78
2022-08-26T19:39:19.820Z,99312.44
2022-08-26T19:41:48.039Z,99314.31
2022-08-26T19:44:39.474Z,99315.44
2022-08-26T19:47:09.918Z,99316.22
2022-08-26T19:49:39.013Z,99316.22
2022-08-26T19:52:08.250Z,99311.81
2022-08-26T19:54:36.592Z,99317.03
2022-08-26T19:57:05.664Z,99323.06
2022-08-26T19:59:33.916Z,99313.66
2022-08-26T20:02:07.115Z,99318.88
2022-08-26T20:04:39.208Z,99322.53
2022-08-26T20:07:09.089Z,99323.22
2022-08-26T20:09:37.736Z,99319.81
2022-08-26T20:12:07.129Z,99326.75
2022-08-26T20:14:36.516Z,99325.63
2022-08-26T20:17:06.278Z,99325.75
2022-08-26T20:19:53.558Z,99329.84
2022-08-26T20:22:22.233Z,99332.81
2022-08-26T20:24:50.640Z,99328.66
2022-08-26T20:27:19.259Z,99332.03
2022-08-26T20:29:47.481Z,99332.59
2022-08-26T20:32:15.968Z,99336.88
2022-08-26T20:34:44.103Z,99336.88
2022-08-26T20:37:12.290Z,99339.66
2022-08-26T20:39:41.430Z,99339.44
2022-08-26T20:42:20.528Z,99342.91
2022-08-26T20:44:54.397Z,99344.75
2022-08-26T20:47:23.479Z,99351.16
2022-08-26T20:49:52.527Z,99352.94
2022-08-26T20:52:20.834Z,99350.44
2022-08-26T20:54:49.149Z,99354.56
2022-08-26T20:57:17.594Z,99353.28
2022-08-26T20:59:45.676Z,99356.31
2022-08-26T21:02:14.186Z,99357.91
2022-08-26T21:04:42.627Z,99362.19
2022-08-26T21:07:10.855Z,99365.97
2022-08-26T21:09:38.959Z,99365.47
2022-08-26T21:12:07.580Z,99363.41
2022-08-26T21:14:35.647Z,99374.03
2022-08-26T21:17:04.846Z,99370.22
2022-08-26T21:19:34.044Z,99368.63
2022-08-26T21:22:02.120Z,99361.72
2022-08-26T21:24:30.322Z,99368.47
2022-08-26T21:26:59.067Z,99368.69
2022-08-26T21:29:27.150Z,99369.03
2022-08-26T21:31:55.407Z,99369.34
2022-08-26T21:34:24.022Z,99361.97
2022-08-26T21:36:52.056Z,99360.50
2022-08-26T21:39:20.279Z,99360.13
2022-08-26T21:41:48.778Z,99358.16
2022-08-26T21:44:17.818Z,99358.25
2022-08-26T21:46:46.699Z,99360.50
2022-08-26T21:49:16.140Z,99358.97
2022-08-26T21:51:47.721Z,99358.97
2022-08-26T21:54:18.061Z,99357.22
2022-08-26T21:56:47.534Z,99375.78
2022-08-26T21:59:18.513Z,99375.78
2022-08-26T22:01:47.063Z,99365.56
2022-08-26T22:04:16.451Z,99360.81
2022-08-26T22:06:50.157Z,99360.91
2022-08-26T22:09:22.677Z,99357.72
2022-08-26T22:11:52.187Z,99359.72
2022-08-26T22:14:30.509Z,99355.69
2022-08-26T22:16:59.814Z,99352.63
2022-08-26T22:19:31.797Z,99360.34
2022-08-26T22:22:03.907Z,99359.78
2022-08-26T22:24:32.715Z,99356.31
2022-08-26T22:27:00.869Z,99360.25
2022-08-26T22:29:29.303Z,99355.59
2022-08-26T22:31:57.771Z,99350.28
2022-08-26T22:34:26.296Z,99347.47
2022-08-26T22:36:54.746Z,99352.87
2022-08-26T22:39:25.301Z,99344.69
2022-08-26T22:41:54.485Z,99344.25
2022-08-26T22:44:23.866Z,99343.09
2022-08-26T22:46:57.001Z,99343.16
2022-08-26T22:49:25.799Z,99338.00
2022-08-26T22:51:54.470Z,99340.53
2022-08-26T22:54:22.609Z,99331.53
2022-08-26T22:56:51.141Z,99331.97
2022-08-26T22:59:19.313Z,99330.37
2022-08-26T23:01:47.776Z,99338.37
2022-08-26T23:04:16.310Z,99340.81
2022-08-26T23:06:47.495Z,99335.91
2022-08-26T23:09:18.719Z,99337.97
2022-08-26T23:11:48.413Z,99332.09
2022-08-26T23:14:18.408Z,99327.94
2022-08-26T23:16:47.819Z,99330.00
2022-08-26T23:19:22.891Z,99322.84
2022-08-26T23:21:51.129Z,99319.53
2022-08-26T23:24:19.437Z,99325.19
2022-08-26T23:26:47.653Z,99323.94
2022-08-26T23:29:16.248Z,99321.38
2022-08-26T23:31:44.709Z,99314.81
2022-08-26T23:34:32.389Z,99312.78
2022-08-26T23:37:02.212Z,99315.16
2022-08-26T23:39:36.235Z,99310.66
2022-08-26T23:42:06.613Z,99306.84
2022-08-26T23:44:35.034Z,99308.81
2022-08-26T23:47:05.068Z,99313.44
2022-08-26T23:49:33.988Z,99309.97
2022-08-26T23:52:22.078Z,99305.16
2022-08-26T23:54:52.377Z,99316.44
2022-08-26T23:57:23.004Z,99310.56
2022-08-26T23:59:51.783Z,99313.94
